Arlington, Virginia
Current Conditions -  °F | °C
As of 7:52 AM on Thursday 23 Oct 2014 (Local Time) from KDCA Reporting Station
Overcast Overcast  
Wind Chill: 56°   Ceiling: 3700
Heat Index: 56°   Visibility: 10mi
Dew Point: 42°   Wind: 15mph
Humidity: 60%   Direction: 320°NW
Pressure: 29.9"   Gusts: 26mph
Location:  38.89°N, 77.09°W
Report Text: KDCA 231152Z 32013G23KT 10SM OVC037 13/06 A2990 RMK AO2 SLP125 70047 T01330056 10133 20122 53004
Loading
Personal Weather Stations






























Interactive Weather Map
Tropical Storm Tracking
New forecast layout! Learn more

10-Day Weather Forecast

Advertisements
Track Severe Weather on mobile